Time;durP1;ratioP1;P1;durP2;ratioP2;P2;SDS_P1;SDS_P2;PMS_P1;PMS_P2;Temp;Humidity;BMP_temperature;BMP_pressure;BME280_temperature;BME280_humidity;BME280_pressure;Samples;Min_cycle;Max_cycle;Signal;HPM_P1;HPM_P2
2022/04/26 03:37:58;;;;;;;;;;;;;;;;;;5016924;28;19917;-44
2022/04/26 03:40:23;;;;;;;;;;;;;;;;;;5016740;28;19917;-42
2022/04/26 03:42:48;;;;;;;;;;;;;;;;;;5017094;28;19910;-42
2022/04/26 03:45:13;;;;;;;;;;;;;;;;;;5016863;28;19920;-42
2022/04/26 03:47:38;;;;;;;;;;;;;;;;;;5031750;28;19920;-43
2022/04/26 03:50:03;;;;;;;;;;;;;;;;;;5016638;28;20007;-42
2022/04/26 03:52:28;;;;;;;;;;;;;;;;;;5016640;28;19969;-42
2022/04/26 03:54:54;;;;;;;;;;;;;;;;;;5020076;28;20352;-43
2022/04/26 03:57:19;;;;;;;;;;;;;;;;;;5036041;28;20280;-42
2022/04/26 03:59:44;;;;;;;;;;;;;;;;;;5035002;28;19917;-43
2022/04/26 04:02:09;;;;;;;;;;;;;;;;;;5035314;28;19913;-43
2022/04/26 04:04:34;;;;;;;;;;;;;;;;;;5036231;28;19909;-44
2022/04/26 04:07:00;;;;;;;;;;;;;;;;;;5035962;28;19967;-43
2022/04/26 04:09:25;;;;;;;;;;;;;;;;;;5036024;28;19916;-43
2022/04/26 04:11:50;;;;;;;;;;;;;;;;;;5035903;28;19915;-42
2022/04/26 04:14:15;;;;;;;;;;;;;;;;;;5035580;28;20367;-43
2022/04/26 04:16:40;;;;;;;;;;;;;;;;;;5035636;28;20257;-43
2022/04/26 04:19:18;;;;;;;;;;;;;;;;;;5035578;28;20376;-43
2022/04/26 04:21:43;;;;;;;;;;;;;;;;;;5035814;28;19909;-43
2022/04/26 04:24:08;;;;;;;;;;;;;;;;;;5035574;28;20326;-43
2022/04/26 04:26:33;;;;;;;;;;;;;;;;;;5034846;28;19943;-43
2022/04/26 04:28:58;;;;;;;;;;;;;;;;;;5035378;28;19960;-43
2022/04/26 04:31:23;;;;;;;;;;;;;;;;;;5035258;28;19963;-43
2022/04/26 04:33:48;;;;;;;;;;;;;;;;;;5035272;28;20438;-43
2022/04/26 04:36:14;;;;;;;;;;;;;;;;;;5035477;28;19909;-43
2022/04/26 04:38:39;;;;;;;;;;;;;;;;;;5035513;28;20360;-43
2022/04/26 04:41:06;;;;;;;;;;;;;;;;;;5035321;28;19909;-43
2022/04/26 04:43:32;;;;;;;;;;;;;;;;;;5035420;28;19916;-43
2022/04/26 04:45:57;;;;;;;;;;;;;;;;;;5035286;28;19966;-43
2022/04/26 04:48:22;;;;;;;;;;;;;;;;;;5035238;28;19909;-44
2022/04/26 04:50:47;;;;;;;;;;;;;;;;;;5035855;28;19917;-42
2022/04/26 04:53:12;;;;;;;;;;;;;;;;;;5035211;28;19915;-43
2022/04/26 04:55:37;;;;;;;;;;;;;;;;;;5034493;28;20000;-43
2022/04/26 04:58:03;;;;;;;;;;;;;;;;;;5034818;28;19915;-44
2022/04/26 05:00:28;;;;;;;;;;;;;;;;;;5034920;28;20001;-43
2022/04/26 05:02:53;;;;;;;;;;;;;;;;;;5034763;28;19915;-43
2022/04/26 05:05:18;;;;;;;;;;;;;;;;;;5035040;28;19917;-43
2022/04/26 05:07:43;;;;;;;;;;;;;;;;;;5034931;28;20372;-43
2022/04/26 05:10:08;;;;;;;;;;;;;;;;;;5034795;28;19909;-43
2022/04/26 05:12:33;;;;;;;;;;;;;;;;;;5033481;28;19909;-43
2022/04/26 05:14:58;;;;;;;;;;;;;;;;;;5034752;28;20371;-44
2022/04/26 05:17:24;;;;;;;;;;;;;;;;;;5034713;28;19914;-43
2022/04/26 05:19:49;;;;;;;;;;;;;;;;;;5034762;28;19913;-44
2022/04/26 05:22:14;;;;;;;;;;;;;;;;;;5034764;28;19910;-44
2022/04/26 05:24:56;;;;;;;;;;;;;;;;;;5034478;28;19909;-43
2022/04/26 05:27:21;;;;;;;;;;;;;;;;;;5034515;28;20339;-44
2022/04/26 05:29:47;;;;;;;;;;;;;;;;;;5034461;28;19990;-43
2022/04/26 05:32:12;;;;;;;;;;;;;;;;;;5034673;28;19932;-44
2022/04/26 05:34:37;;;;;;;;;;;;;;;;;;5034628;28;19956;-43
2022/04/26 05:37:02;;;;;;;;;;;;;;;;;;5034758;28;19941;-44
2022/04/26 05:39:27;;;;;;;;;;;;;;;;;;5034682;28;19909;-43
2022/04/26 05:41:52;;;;;;;;;;;;;;;;;;5034641;28;20279;-42
2022/04/26 05:44:17;;;;;;;;;;;;;;;;;;5034700;28;19915;-43
2022/04/26 05:46:43;;;;;;;;;;;;;;;;;;5034690;28;19919;-44
2022/04/26 05:49:08;;;;;;;;;;;;;;;;;;5034648;28;19951;-43
2022/04/26 05:51:33;;;;;;;;;;;;;;;;;;5033611;28;19932;-42
2022/04/26 05:53:58;;;;;;;;;;;;;;;;;;5034583;28;19916;-43
2022/04/26 05:56:23;;;;;;;;;;;;;;;;;;5034076;28;19917;-42
2022/04/26 05:58:48;;;;;;;;;;;;;;;;;;5034474;28;19909;-42
2022/04/26 06:01:13;;;;;;;;;;;;;;;;;;5034478;28;19917;-43
2022/04/26 06:03:39;;;;;;;;;;;;;;;;;;5034357;28;19956;-44
2022/04/26 06:06:04;;;;;;;;;;;;;;;;;;5034175;28;20459;-44
2022/04/26 06:08:29;;;;;;;;;;;;;;;;;;5035381;28;20323;-44
2022/04/26 06:10:54;;;;;;;;;;;;;;;;;;5038157;28;19916;-43
2022/04/26 06:13:19;;;;;;;;;;;;;;;;;;5038145;28;19916;-43
2022/04/26 06:15:44;;;;;;;;;;;;;;;;;;5038038;28;19909;-43
2022/04/26 06:18:09;;;;;;;;;;;;;;;;;;5038016;28;19920;-43
2022/04/26 06:20:34;;;;;;;;;;;;;;;;;;5037992;28;19913;-42
2022/04/26 06:23:01;;;;;;;;;;;;;;;;;;5038330;28;19916;-43
2022/04/26 06:25:26;;;;;;;;;;;;;;;;;;5037899;28;20280;-42
2022/04/26 06:27:51;;;;;;;;;;;;;;;;;;5037828;28;19921;-42
2022/04/26 06:30:17;;;;;;;;;;;;;;;;;;5037798;28;20375;-43
2022/04/26 06:32:43;;;;;;;;;;;;;;;;;;5038116;28;19917;-42
2022/04/26 06:35:08;;;;;;;;;;;;;;;;;;5037886;28;19909;-42
2022/04/26 06:37:33;;;;;;;;;;;;;;;;;;5037896;28;20280;-43
2022/04/26 06:39:58;;;;;;;;;;;;;;;;;;5037812;28;19909;-43
2022/04/26 06:42:23;;;;;;;;;;;;;;;;;;5037827;28;19913;-42
2022/04/26 06:44:48;;;;;;;;;;;;;;;;;;5038252;28;20003;-43
2022/04/26 06:47:13;;;;;;;;;;;;;;;;;;5037674;28;20301;-42
2022/04/26 06:49:38;;;;;;;;;;;;;;;;;;5037800;28;19916;-43
2022/04/26 06:52:03;;;;;;;;;;;;;;;;;;5037685;28;19916;-42
2022/04/26 06:54:29;;;;;;;;;;;;;;;;;;5037358;28;19916;-43
2022/04/26 06:56:54;;;;;;;;;;;;;;;;;;5037654;28;19916;-43
2022/04/26 06:59:19;;;;;;;;;;;;;;;;;;5037576;28;20418;-43
2022/04/26 07:01:44;;;;;;;;;;;;;;;;;;5037282;28;19905;-43
2022/04/26 07:04:09;;;;;;;;;;;;;;;;;;5037408;28;19936;-43
2022/04/26 07:06:34;;;;;;;;;;;;;;;;;;5037522;28;19913;-43
2022/04/26 07:09:01;;;;;;;;;;;;;;;;;;5037355;28;19913;-43
2022/04/26 07:11:26;;;;;;;;;;;;;;;;;;5037367;28;19909;-43
2022/04/26 07:13:52;;;;;;;;;;;;;;;;;;5037570;28;19909;-43
2022/04/26 07:16:17;;;;;;;;;;;;;;;;;;5035761;28;19917;-43
2022/04/26 07:18:42;;;;;;;;;;;;;;;;;;5035873;28;19970;-43
2022/04/26 07:21:07;;;;;;;;;;;;;;;;;;5035763;28;20429;-43
2022/04/26 07:23:33;;;;;;;;;;;;;;;;;;5034255;28;19909;-43
2022/04/26 07:25:59;;;;;;;;;;;;;;;;;;5033636;28;19925;-44
2022/04/26 07:28:24;;;;;;;;;;;;;;;;;;5037087;28;19913;-44
2022/04/26 07:30:50;;;;;;;;;;;;;;;;;;5036217;28;19917;-43
2022/04/26 07:35:59;;;;;;;;;;;;;;;;;;5034927;28;20387;-44
2022/04/26 07:38:24;;;;;;;;;;;;;;;;;;5036282;28;19909;-44
2022/04/26 07:40:49;;;;;;;;;;;;;;;;;;5036238;28;19913;-44
2022/04/26 07:43:14;;;;;;;;;;;;;;;;;;5036618;28;19909;-42
2022/04/26 07:45:39;;;;;;;;;;;;;;;;;;5036041;28;19917;-43
2022/04/26 07:48:05;;;;;;;;;;;;;;;;;;5035776;28;19909;-43
2022/04/26 07:50:30;;;;;;;;;;;;;;;;;;5035331;28;19913;-43
2022/04/26 07:52:55;;;;;;;;;;;;;;;;;;5034912;28;19916;-43
2022/04/26 07:55:21;;;;;;;;;;;;;;;;;;5035416;28;19924;-42
2022/04/26 07:57:46;;;;;;;;;;;;;;;;;;5036088;28;19920;-43
2022/04/26 08:00:11;;;;;;;;;;;;;;;;;;5036089;28;19975;-43
2022/04/26 08:02:36;;;;;;;;;;;;;;;;;;5036303;28;19909;-42
2022/04/26 08:05:01;;;;;;;;;;;;;;;;;;5034781;28;20257;-42
2022/04/26 08:07:26;;;;;;;;;;;;;;;;;;5035369;28;20241;-42
2022/04/26 08:09:51;;;;;;;;;;;;;;;;;;5035212;28;19917;-44
2022/04/26 08:12:16;;;;;;;;;;;;;;;;;;5035760;28;19913;-43
2022/04/26 08:14:42;;;;;;;;;;;;;;;;;;5035359;28;19909;-42
2022/04/26 08:17:07;;;;;;;;;;;;;;;;;;5035114;28;19909;-44
2022/04/26 08:19:32;;;;;;;;;;;;;;;;;;5034232;28;19920;-44
2022/04/26 08:21:58;;;;;;;;;;;;;;;;;;5032140;28;19916;-44
2022/04/26 08:27:22;;;;;;;;;;;;;;;;;;5035090;28;19932;-43
2022/04/26 08:29:47;;;;;;;;;;;;;;;;;;5035639;28;19916;-44
2022/04/26 08:32:13;;;;;;;;;;;;;;;;;;5033890;28;19906;-46
2022/04/26 08:34:38;;;;;;;;;;;;;;;;;;5035536;28;19909;-43
2022/04/26 08:37:06;;;;;;;;;;;;;;;;;;5035575;28;20000;-43
2022/04/26 08:39:31;;;;;;;;;;;;;;;;;;5036178;28;19996;-44
2022/04/26 08:41:56;;;;;;;;;;;;;;;;;;5034061;28;20446;-44
2022/04/26 08:44:21;;;;;;;;;;;;;;;;;;5035205;28;20283;-42
2022/04/26 08:52:15;;;;;;;;;;;;;;;;;;5035189;28;19916;-42
2022/04/26 08:54:40;;;;;;;;;;;;;;;;;;5034725;28;19913;-43
2022/04/26 08:57:06;;;;;;;;;;;;;;;;;;5034975;28;19913;-43
2022/04/26 08:59:31;;;;;;;;;;;;;;;;;;5035198;28;20375;-44
2022/04/26 09:01:56;;;;;;;;;;;;;;;;;;5035350;28;19909;-43
2022/04/26 09:04:21;;;;;;;;;;;;;;;;;;5035114;28;19913;-43
2022/04/26 09:06:47;;;;;;;;;;;;;;;;;;5034953;28;19913;-44
2022/04/26 09:09:12;;;;;;;;;;;;;;;;;;5034279;28;19909;-42
2022/04/26 09:11:37;;;;;;;;;;;;;;;;;;5035265;28;19995;-45
2022/04/26 09:14:02;;;;;;;;;;;;;;;;;;5035028;28;19913;-43
2022/04/26 09:16:27;;;;;;;;;;;;;;;;;;5033718;28;20019;-42
2022/04/26 09:18:56;;;;;;;;;;;;;;;;;;5034801;28;19909;-43
2022/04/26 09:21:21;;;;;;;;;;;;;;;;;;5034738;28;20311;-43
2022/04/26 09:23:46;;;;;;;;;;;;;;;;;;5034473;28;19909;-44
2022/04/26 09:26:12;;;;;;;;;;;;;;;;;;5033980;28;19968;-43
2022/04/26 09:28:37;;;;;;;;;;;;;;;;;;5035222;28;19915;-44
2022/04/26 09:31:02;;;;;;;;;;;;;;;;;;5034694;28;20383;-44
2022/04/26 09:33:27;;;;;;;;;;;;;;;;;;5034540;28;20001;-43
2022/04/26 09:35:53;;;;;;;;;;;;;;;;;;5034582;28;19920;-44
2022/04/26 09:38:18;;;;;;;;;;;;;;;;;;5034571;28;19909;-45
2022/04/26 09:40:43;;;;;;;;;;;;;;;;;;5034506;28;19920;-43
2022/04/26 09:43:09;;;;;;;;;;;;;;;;;;5036891;28;19910;-43
2022/04/26 09:45:34;;;;;;;;;;;;;;;;;;5038755;28;19916;-43
2022/04/26 09:47:59;;;;;;;;;;;;;;;;;;5038416;28;19917;-43
2022/04/26 09:50:24;;;;;;;;;;;;;;;;;;5037093;28;19913;-43
2022/04/26 09:52:49;;;;;;;;;;;;;;;;;;5038345;28;19909;-43
2022/04/26 09:55:14;;;;;;;;;;;;;;;;;;5038373;28;19909;-43
2022/04/26 09:57:40;;;;;;;;;;;;;;;;;;5038510;28;19910;-43
2022/04/26 10:00:05;;;;;;;;;;;;;;;;;;5038381;28;19917;-43
2022/04/26 10:02:30;;;;;;;;;;;;;;;;;;5038295;28;19913;-44
2022/04/26 10:04:56;;;;;;;;;;;;;;;;;;5038206;28;19909;-43
2022/04/26 10:07:21;;;;;;;;;;;;;;;;;;5038225;28;19935;-44
2022/04/26 10:09:46;;;;;;;;;;;;;;;;;;5038152;28;20338;-44
2022/04/26 10:12:11;;;;;;;;;;;;;;;;;;5038135;28;20315;-45
2022/04/26 10:14:37;;;;;;;;;;;;;;;;;;5029582;28;20304;-44
2022/04/26 10:17:02;;;;;;;;;;;;;;;;;;5018104;28;19906;-44
2022/04/26 10:19:27;;;;;;;;;;;;;;;;;;5025554;28;20241;-44
2022/04/26 10:21:52;;;;;;;;;;;;;;;;;;5037486;28;19913;-44
2022/04/26 10:24:17;;;;;;;;;;;;;;;;;;5037513;28;20269;-43
2022/04/26 10:26:43;;;;;;;;;;;;;;;;;;5037317;28;20368;-44
2022/04/26 10:29:08;;;;;;;;;;;;;;;;;;5036514;28;20272;-44
2022/04/26 10:31:34;;;;;;;;;;;;;;;;;;5038024;28;19910;-44
2022/04/26 10:34:00;;;;;;;;;;;;;;;;;;5037546;28;20356;-43
2022/04/26 10:36:25;;;;;;;;;;;;;;;;;;5037713;28;19909;-43
2022/04/26 10:38:50;;;;;;;;;;;;;;;;;;5037454;28;19909;-43
2022/04/26 10:41:16;;;;;;;;;;;;;;;;;;5037430;28;19964;-43
2022/04/26 10:43:42;;;;;;;;;;;;;;;;;;5037535;28;19909;-43
2022/04/26 10:46:07;;;;;;;;;;;;;;;;;;5037256;28;19920;-45
2022/04/26 10:48:32;;;;;;;;;;;;;;;;;;5037101;28;20296;-43
2022/04/26 10:50:57;;;;;;;;;;;;;;;;;;5037365;28;19913;-44
2022/04/26 10:53:22;;;;;;;;;;;;;;;;;;5021370;28;19914;-43
2022/04/26 10:55:49;;;;;;;;;;;;;;;;;;5028112;28;20007;-44
2022/04/26 10:58:15;;;;;;;;;;;;;;;;;;5037643;28;20327;-44
2022/04/26 11:00:41;;;;;;;;;;;;;;;;;;5037421;28;19909;-44
2022/04/26 11:03:07;;;;;;;;;;;;;;;;;;5037496;28;19923;-45
2022/04/26 11:05:34;;;;;;;;;;;;;;;;;;5027294;28;19960;-44
2022/04/26 11:07:59;;;;;;;;;;;;;;;;;;5017390;28;19920;-44
2022/04/26 11:10:24;;;;;;;;;;;;;;;;;;5017471;28;19910;-44
2022/04/26 11:12:50;;;;;;;;;;;;;;;;;;5017350;28;19996;-44
2022/04/26 11:15:19;;;;;;;;;;;;;;;;;;5017157;28;20365;-46
2022/04/26 11:17:44;;;;;;;;;;;;;;;;;;5017118;28;19920;-44
2022/04/26 11:20:09;;;;;;;;;;;;;;;;;;5032533;28;19913;-44
2022/04/26 11:22:35;;;;;;;;;;;;;;;;;;5036930;28;20257;-44
2022/04/26 11:30:30;;;;;;;;;;;;;;;;;;5036589;28;19955;-44
2022/04/26 11:32:55;;;;;;;;;;;;;;;;;;5036740;28;19909;-44
2022/04/26 11:35:20;;;;;;;;;;;;;;;;;;5036530;28;19920;-44
2022/04/26 11:37:46;;;;;;;;;;;;;;;;;;5036445;28;19917;-44
2022/04/26 11:40:11;;;;;;;;;;;;;;;;;;5036321;28;19916;-44
2022/04/26 11:42:37;;;;;;;;;;;;;;;;;;5036590;28;20372;-44
2022/04/26 11:45:02;;;;;;;;;;;;;;;;;;5036640;28;19909;-45
2022/04/26 11:47:27;;;;;;;;;;;;;;;;;;5036348;28;19916;-45
2022/04/26 11:49:54;;;;;;;;;;;;;;;;;;5036092;28;20279;-43
2022/04/26 11:52:19;;;;;;;;;;;;;;;;;;5036473;28;20003;-44
2022/04/26 11:54:44;;;;;;;;;;;;;;;;;;5036022;28;19952;-43
2022/04/26 11:57:09;;;;;;;;;;;;;;;;;;5036398;28;20412;-43
2022/04/26 11:59:35;;;;;;;;;;;;;;;;;;5036185;28;19905;-44
2022/04/26 12:02:00;;;;;;;;;;;;;;;;;;5036136;28;19909;-43
2022/04/26 12:04:25;;;;;;;;;;;;;;;;;;5036169;28;19915;-43
2022/04/26 12:06:52;;;;;;;;;;;;;;;;;;5033071;28;19917;-43
2022/04/26 12:09:17;;;;;;;;;;;;;;;;;;5034903;28;19913;-44
2022/04/26 12:11:44;;;;;;;;;;;;;;;;;;5036086;28;19920;-43
2022/04/26 12:14:11;;;;;;;;;;;;;;;;;;5035937;28;19909;-44
2022/04/26 12:16:36;;;;;;;;;;;;;;;;;;5035801;28;19909;-43
2022/04/26 12:19:03;;;;;;;;;;;;;;;;;;5035308;28;19909;-44
2022/04/26 12:21:28;;;;;;;;;;;;;;;;;;5035711;28;20311;-43
2022/04/26 12:23:53;;;;;;;;;;;;;;;;;;5035750;28;19917;-43
2022/04/26 12:26:18;;;;;;;;;;;;;;;;;;5035067;28;19925;-44
2022/04/26 12:28:43;;;;;;;;;;;;;;;;;;5035485;28;19913;-44
2022/04/26 12:31:08;;;;;;;;;;;;;;;;;;5034194;28;19909;-44
2022/04/26 12:33:34;;;;;;;;;;;;;;;;;;5035463;28;20340;-44
2022/04/26 12:35:59;;;;;;;;;;;;;;;;;;5035259;28;20008;-44
2022/04/26 12:38:24;;;;;;;;;;;;;;;;;;5030541;28;19913;-44
2022/04/26 12:40:49;;;;;;;;;;;;;;;;;;5034979;28;19909;-44
2022/04/26 12:43:14;;;;;;;;;;;;;;;;;;5035496;28;19909;-44
2022/04/26 12:45:39;;;;;;;;;;;;;;;;;;5035207;28;19916;-44
2022/04/26 12:50:48;;;;;;;;;;;;;;;;;;5035071;28;19915;-43
2022/04/26 12:53:13;;;;;;;;;;;;;;;;;;5035080;28;19909;-44
2022/04/26 12:55:38;;;;;;;;;;;;;;;;;;5034796;28;19967;-43
2022/04/26 12:58:03;;;;;;;;;;;;;;;;;;5034842;28;20413;-44
2022/04/26 13:00:29;;;;;;;;;;;;;;;;;;5034791;28;19909;-45
2022/04/26 13:02:54;;;;;;;;;;;;;;;;;;5035121;28;20292;-43
2022/04/26 13:05:30;;;;;;;;;;;;;;;;;;5034937;28;19909;-44
2022/04/26 13:07:55;;;;;;;;;;;;;;;;;;5034753;28;20275;-43
2022/04/26 13:10:20;;;;;;;;;;;;;;;;;;5034936;28;19913;-44
2022/04/26 13:12:46;;;;;;;;;;;;;;;;;;5034732;28;20368;-44
2022/04/26 13:15:11;;;;;;;;;;;;;;;;;;5034623;28;19916;-43
2022/04/26 13:17:36;;;;;;;;;;;;;;;;;;5034294;28;19909;-43
2022/04/26 13:20:01;;;;;;;;;;;;;;;;;;5034323;28;19964;-43
2022/04/26 13:22:26;;;;;;;;;;;;;;;;;;5034465;28;20265;-43
2022/04/26 13:24:52;;;;;;;;;;;;;;;;;;5034523;28;20344;-43
2022/04/26 13:27:18;;;;;;;;;;;;;;;;;;5076591;22;20016;-43
2022/04/26 13:29:44;;;;;;;;;;;;;;;;;;5072916;28;20133;-43
2022/04/26 13:32:09;;;;;;;;;;;;;;;;;;5074634;28;19912;-44
2022/04/26 13:34:34;;;;;;;;;;;;;;;;;;5073520;28;19912;-43
2022/04/26 13:36:59;;;;;;;;;;;;;;;;;;5074385;28;20351;-43
2022/04/26 13:39:24;;;;;;;;;;;;;;;;;;5074532;28;19912;-44
2022/04/26 13:41:52;;;;;;;;;;;;;;;;;;5074426;28;19912;-41
2022/04/26 13:44:20;;;;;;;;;;;;;;;;;;5074564;28;20003;-43
2022/04/26 13:46:45;;;;;;;;;;;;;;;;;;5074089;28;19912;-42
2022/04/26 13:49:11;;;;;;;;;;;;;;;;;;5073787;28;19919;-43
2022/04/26 13:51:36;;;;;;;;;;;;;;;;;;5074010;28;19914;-43
2022/04/26 13:54:01;;;;;;;;;;;;;;;;;;5073998;28;19999;-44
2022/04/26 13:56:26;;;;;;;;;;;;;;;;;;5073827;28;20448;-44
2022/04/26 13:58:51;;;;;;;;;;;;;;;;;;5073567;28;19916;-43
2022/04/26 14:01:16;;;;;;;;;;;;;;;;;;5073114;28;20348;-43
2022/04/26 14:03:41;;;;;;;;;;;;;;;;;;5074154;28;20325;-44
2022/04/26 14:06:10;;;;;;;;;;;;;;;;;;5056145;28;19920;-43
2022/04/26 14:08:36;;;;;;;;;;;;;;;;;;5074354;28;19908;-43
2022/04/26 14:11:01;;;;;;;;;;;;;;;;;;5073981;28;19905;-43
2022/04/26 14:13:27;;;;;;;;;;;;;;;;;;5074113;28;20423;-43
2022/04/26 14:24:06;;;;;;;;;;;;;;;;;;5094306;28;20274;-44
2022/04/26 14:26:31;;;;;;;;;;;;;;;;;;5093542;28;19931;-43
2022/04/26 14:28:56;;;;;;;;;;;;;;;;;;5094489;28;19908;-43
2022/04/26 14:31:21;;;;;;;;;;;;;;;;;;5097835;28;19934;-44
2022/04/26 14:33:46;;;;;;;;;;;;;;;;;;5097740;28;19915;-44
2022/04/26 14:36:11;;;;;;;;;;;;;;;;;;5097649;28;20320;-44
2022/04/26 14:38:37;;;;;;;;;;;;;;;;;;5097818;28;19908;-43
2022/04/26 14:41:02;;;;;;;;;;;;;;;;;;5097856;28;19951;-43
2022/04/26 14:43:27;;;;;;;;;;;;;;;;;;5097827;28;19914;-44
2022/04/26 14:45:55;;;;;;;;;;;;;;;;;;5097561;28;19991;-43
2022/04/26 14:48:20;;;;;;;;;;;;;;;;;;5097742;28;19919;-44
2022/04/26 14:50:45;;;;;;;;;;;;;;;;;;5097684;28;19908;-44
2022/04/26 14:53:10;;;;;;;;;;;;;;;;;;5097519;28;19908;-44
2022/04/26 14:55:36;;;;;;;;;;;;;;;;;;5097398;28;19912;-44
2022/04/26 14:58:01;;;;;;;;;;;;;;;;;;5096371;28;19920;-43
2022/04/26 15:00:26;;;;;;;;;;;;;;;;;;5077116;28;19920;-44
2022/04/26 15:02:52;;;;;;;;;;;;;;;;;;5077107;28;19999;-44
2022/04/26 15:05:18;;;;;;;;;;;;;;;;;;5077022;28;20367;-44
2022/04/26 15:10:29;;;;;;;;;;;;;;;;;;5096783;28;19919;-44
2022/04/26 15:18:22;;;;;;;;;;;;;;;;;;5097025;28;19914;-44
2022/04/26 15:20:53;;;;;;;;;;;;;;;;;;5097079;28;19908;-43
2022/04/26 15:23:18;;;;;;;;;;;;;;;;;;5097305;28;19908;-44
2022/04/26 15:25:55;;;;;;;;;;;;;;;;;;5096169;28;20287;-43
2022/04/26 15:28:20;;;;;;;;;;;;;;;;;;5097175;28;20020;-45
2022/04/26 15:30:45;;;;;;;;;;;;;;;;;;5096802;28;19964;-43
2022/04/26 15:33:10;;;;;;;;;;;;;;;;;;5096821;28;19908;-43
2022/04/26 15:35:36;;;;;;;;;;;;;;;;;;5096833;28;19908;-44
2022/04/26 15:38:02;;;;;;;;;;;;;;;;;;5096602;28;20256;-44
2022/04/26 15:40:27;;;;;;;;;;;;;;;;;;5096356;28;20355;-43
2022/04/26 15:42:52;;;;;;;;;;;;;;;;;;5096393;28;20018;-44
2022/04/26 15:45:17;;;;;;;;;;;;;;;;;;5096515;28;19908;-43
2022/04/26 15:47:42;;;;;;;;;;;;;;;;;;5096415;28;19923;-44
2022/04/26 15:50:08;;;;;;;;;;;;;;;;;;5096371;28;19908;-44
2022/04/26 15:52:34;;;;;;;;;;;;;;;;;;5092566;28;19908;-44
2022/04/26 15:54:59;;;;;;;;;;;;;;;;;;5096083;28;19908;-44
2022/04/26 15:57:24;;;;;;;;;;;;;;;;;;5096133;28;19912;-44
2022/04/26 15:59:49;;;;;;;;;;;;;;;;;;5096219;28;19914;-43
2022/04/26 16:02:16;;;;;;;;;;;;;;;;;;5096328;28;19914;-44
2022/04/26 16:04:42;;;;;;;;;;;;;;;;;;5095867;28;20381;-44
2022/04/26 16:07:07;;;;;;;;;;;;;;;;;;5094655;28;20011;-43
2022/04/26 16:20:32;;;;;;;;;;;;;;;;;;5095879;28;20008;-43
2022/04/26 16:22:57;;;;;;;;;;;;;;;;;;5095753;28;20338;-43
2022/04/26 16:25:22;;;;;;;;;;;;;;;;;;5095236;28;19916;-43
2022/04/26 16:27:48;;;;;;;;;;;;;;;;;;5095533;28;20348;-43
2022/04/26 16:30:13;;;;;;;;;;;;;;;;;;5095453;28;19969;-45
2022/04/26 16:32:39;;;;;;;;;;;;;;;;;;5094879;28;19916;-45
2022/04/26 16:35:04;;;;;;;;;;;;;;;;;;5095354;28;19916;-44
2022/04/26 16:37:29;;;;;;;;;;;;;;;;;;5095413;28;19908;-43
2022/04/26 16:39:54;;;;;;;;;;;;;;;;;;5095388;28;19908;-44
2022/04/26 16:42:20;;;;;;;;;;;;;;;;;;5095305;28;19908;-45
2022/04/26 16:44:46;;;;;;;;;;;;;;;;;;5095468;28;19957;-44
2022/04/26 16:47:11;;;;;;;;;;;;;;;;;;5095329;28;19935;-43
2022/04/26 16:49:36;;;;;;;;;;;;;;;;;;5095483;28;20278;-45
2022/04/26 16:52:01;;;;;;;;;;;;;;;;;;5094806;28;19915;-44
2022/04/26 16:54:26;;;;;;;;;;;;;;;;;;5094959;28;19908;-44
2022/04/26 16:56:51;;;;;;;;;;;;;;;;;;5095106;28;19912;-44
2022/04/26 16:59:17;;;;;;;;;;;;;;;;;;5095226;28;19967;-44
2022/04/26 17:01:43;;;;;;;;;;;;;;;;;;5095275;28;19912;-44
2022/04/26 17:04:12;;;;;;;;;;;;;;;;;;5095057;28;19908;-44
2022/04/26 17:06:37;;;;;;;;;;;;;;;;;;5095145;28;19912;-44
2022/04/26 17:09:02;;;;;;;;;;;;;;;;;;5095070;28;20423;-43
2022/04/26 17:11:42;;;;;;;;;;;;;;;;;;5094733;28;20006;-45
2022/04/26 17:14:07;;;;;;;;;;;;;;;;;;5094827;28;19999;-43
2022/04/26 17:16:33;;;;;;;;;;;;;;;;;;5094960;28;19947;-44
2022/04/26 17:18:58;;;;;;;;;;;;;;;;;;5094776;28;19915;-44
2022/04/26 17:21:24;;;;;;;;;;;;;;;;;;5094232;28;19915;-47
2022/04/26 17:23:49;;;;;;;;;;;;;;;;;;5094794;28;19920;-44
2022/04/26 17:26:15;;;;;;;;;;;;;;;;;;5094099;28;19920;-43
2022/04/26 17:28:40;;;;;;;;;;;;;;;;;;5092512;28;20002;-44
2022/04/26 17:31:06;;;;;;;;;;;;;;;;;;5094550;28;19908;-43
2022/04/26 17:33:31;;;;;;;;;;;;;;;;;;5094759;28;19965;-43
2022/04/26 17:35:56;;;;;;;;;;;;;;;;;;5094383;28;19916;-44
2022/04/26 17:38:22;;;;;;;;;;;;;;;;;;5094621;28;19916;-43
2022/04/26 17:40:47;;;;;;;;;;;;;;;;;;5094511;28;19991;-44
2022/04/26 17:43:13;;;;;;;;;;;;;;;;;;5094610;28;20271;-44
2022/04/26 17:45:40;;;;;;;;;;;;;;;;;;5094358;28;19954;-44
2022/04/26 17:48:05;;;;;;;;;;;;;;;;;;5094206;28;19919;-43
2022/04/26 17:50:30;;;;;;;;;;;;;;;;;;5094550;28;19908;-44
2022/04/26 17:58:23;;;;;;;;;;;;;;;;;;5094614;28;19915;-44
2022/04/26 18:00:48;;;;;;;;;;;;;;;;;;5094592;28;19909;-44
2022/04/26 18:03:14;;;;;;;;;;;;;;;;;;5094835;28;19912;-45
2022/04/26 18:05:40;;;;;;;;;;;;;;;;;;5098372;28;19916;-44
2022/04/26 18:08:05;;;;;;;;;;;;;;;;;;5098512;28;20279;-45
2022/04/26 18:10:31;;;;;;;;;;;;;;;;;;5098152;28;19912;-44
2022/04/26 18:12:56;;;;;;;;;;;;;;;;;;5098224;28;20010;-44
2022/04/26 18:15:21;;;;;;;;;;;;;;;;;;5098162;28;19908;-44
2022/04/26 18:17:47;;;;;;;;;;;;;;;;;;5098264;28;19913;-44
2022/04/26 18:20:12;;;;;;;;;;;;;;;;;;5098145;28;19908;-43
2022/04/26 18:22:38;;;;;;;;;;;;;;;;;;5097939;28;19912;-43
2022/04/26 18:25:03;;;;;;;;;;;;;;;;;;5097602;28;19919;-44
2022/04/26 18:27:28;;;;;;;;;;;;;;;;;;5097720;28;19920;-45
2022/04/26 18:29:53;;;;;;;;;;;;;;;;;;5097568;28;19912;-44
2022/04/26 18:32:19;;;;;;;;;;;;;;;;;;5098052;28;19961;-43
2022/04/26 18:34:44;;;;;;;;;;;;;;;;;;5097799;28;20001;-43
2022/04/26 18:37:09;;;;;;;;;;;;;;;;;;5097263;28;20324;-44
2022/04/26 18:39:34;;;;;;;;;;;;;;;;;;5097979;28;19961;-44
2022/04/26 18:41:59;;;;;;;;;;;;;;;;;;5097865;28;19912;-44
2022/04/26 18:44:24;;;;;;;;;;;;;;;;;;5097825;28;19908;-44
2022/04/26 18:46:50;;;;;;;;;;;;;;;;;;5097709;28;19944;-44
2022/04/26 18:49:16;;;;;;;;;;;;;;;;;;5097707;28;19908;-44
2022/04/26 18:51:43;;;;;;;;;;;;;;;;;;5097613;28;19908;-44
2022/04/26 18:54:08;;;;;;;;;;;;;;;;;;5097600;28;19916;-44
2022/04/26 18:56:33;;;;;;;;;;;;;;;;;;5097375;28;19912;-43
2022/04/26 18:58:58;;;;;;;;;;;;;;;;;;5097473;28;19909;-43
2022/04/26 19:01:23;;;;;;;;;;;;;;;;;;5097337;28;19908;-44
2022/04/26 19:03:48;;;;;;;;;;;;;;;;;;5097489;28;19908;-44
2022/04/26 19:06:13;;;;;;;;;;;;;;;;;;5097392;28;19936;-43
2022/04/26 19:08:38;;;;;;;;;;;;;;;;;;5097358;28;20252;-44
2022/04/26 19:13:47;;;;;;;;;;;;;;;;;;5097264;28;20449;-43
2022/04/26 19:16:13;;;;;;;;;;;;;;;;;;5096621;28;19948;-43
2022/04/26 19:18:38;;;;;;;;;;;;;;;;;;5097404;28;19915;-43
2022/04/26 19:21:04;;;;;;;;;;;;;;;;;;5097157;28;19948;-42
2022/04/26 19:23:31;;;;;;;;;;;;;;;;;;5097107;28;19908;-43
2022/04/26 19:25:56;;;;;;;;;;;;;;;;;;5096470;28;19920;-43
2022/04/26 19:28:22;;;;;;;;;;;;;;;;;;5096926;28;19916;-43
2022/04/26 19:30:47;;;;;;;;;;;;;;;;;;5097187;28;19915;-42
2022/04/26 19:33:15;;;;;;;;;;;;;;;;;;5096977;28;19915;-44
2022/04/26 19:35:48;;;;;;;;;;;;;;;;;;5096872;28;19995;-43
2022/04/26 19:38:13;;;;;;;;;;;;;;;;;;5096995;28;19931;-44
2022/04/26 19:40:38;;;;;;;;;;;;;;;;;;5096836;28;19909;-43
2022/04/26 19:43:04;;;;;;;;;;;;;;;;;;5079074;28;19908;-43
2022/04/26 19:45:29;;;;;;;;;;;;;;;;;;5096728;28;19908;-43
2022/04/26 19:47:54;;;;;;;;;;;;;;;;;;5096546;28;20290;-45
2022/04/26 19:53:03;;;;;;;;;;;;;;;;;;5096494;28;19934;-43
2022/04/26 19:55:28;;;;;;;;;;;;;;;;;;5095573;28;19963;-46
2022/04/26 19:57:53;;;;;;;;;;;;;;;;;;5096161;28;19912;-43
2022/04/26 20:00:19;;;;;;;;;;;;;;;;;;5096167;28;19908;-43
2022/04/26 20:02:44;;;;;;;;;;;;;;;;;;5096827;28;19943;-43
2022/04/26 20:05:09;;;;;;;;;;;;;;;;;;5096405;28;19931;-43
2022/04/26 20:07:34;;;;;;;;;;;;;;;;;;5096307;28;19912;-43
2022/04/26 20:10:00;;;;;;;;;;;;;;;;;;5096267;28;20337;-43
2022/04/26 20:12:25;;;;;;;;;;;;;;;;;;5096141;28;19908;-43
2022/04/26 20:14:51;;;;;;;;;;;;;;;;;;5096149;28;19908;-43
2022/04/26 20:17:16;;;;;;;;;;;;;;;;;;5096155;28;19908;-42
2022/04/26 20:19:42;;;;;;;;;;;;;;;;;;5096065;28;20418;-43
2022/04/26 20:22:07;;;;;;;;;;;;;;;;;;5095798;28;19914;-44
2022/04/26 20:24:35;;;;;;;;;;;;;;;;;;5095542;28;19912;-43
2022/04/26 20:29:47;;;;;;;;;;;;;;;;;;5095969;28;19915;-44
2022/04/26 20:32:12;;;;;;;;;;;;;;;;;;5095899;28;19916;-43
2022/04/26 20:34:37;;;;;;;;;;;;;;;;;;5095688;28;20347;-43
2022/04/26 20:37:02;;;;;;;;;;;;;;;;;;5095699;28;19908;-43
2022/04/26 20:39:27;;;;;;;;;;;;;;;;;;5095922;28;19960;-43
2022/04/26 20:41:52;;;;;;;;;;;;;;;;;;5095723;28;20261;-43
2022/04/26 20:44:18;;;;;;;;;;;;;;;;;;5096090;28;19915;-44
2022/04/26 20:46:43;;;;;;;;;;;;;;;;;;5095742;28;19935;-43
2022/04/26 20:49:08;;;;;;;;;;;;;;;;;;5095837;28;19912;-43
2022/04/26 20:51:33;;;;;;;;;;;;;;;;;;5095603;28;19915;-43
2022/04/26 20:53:58;;;;;;;;;;;;;;;;;;5095204;28;19938;-44
2022/04/26 20:56:23;;;;;;;;;;;;;;;;;;5095461;28;19916;-43
2022/04/26 20:58:48;;;;;;;;;;;;;;;;;;5095609;28;19908;-43
2022/04/26 21:01:14;;;;;;;;;;;;;;;;;;5095315;28;19909;-43
2022/04/26 21:03:39;;;;;;;;;;;;;;;;;;5095495;28;19912;-43
2022/04/26 21:06:04;;;;;;;;;;;;;;;;;;5095444;28;19908;-42
2022/04/26 21:08:29;;;;;;;;;;;;;;;;;;5095404;28;20414;-43
2022/04/26 21:10:54;;;;;;;;;;;;;;;;;;5095413;28;19908;-44